sensor_id;sensor_type;location;lat;lon;timestamp;temperature;humidity
23083;DHT22;11709;52.420;10.538;2022-12-05T00:00:27;2.20;99.90
23083;DHT22;11709;52.420;10.538;2022-12-05T00:04:29;2.20;99.90
23083;DHT22;11709;52.420;10.538;2022-12-05T00:08:32;2.20;99.90
23083;DHT22;11709;52.420;10.538;2022-12-05T00:12:35;2.20;99.90
23083;DHT22;11709;52.420;10.538;2022-12-05T00:16:38;2.20;99.90
23083;DHT22;11709;52.420;10.538;2022-12-05T00:20:46;2.20;99.90
23083;DHT22;11709;52.420;10.538;2022-12-05T00:24:49;2.20;99.90
23083;DHT22;11709;52.420;10.538;2022-12-05T00:28:52;2.20;99.90
23083;DHT22;11709;52.420;10.538;2022-12-05T00:32:56;2.20;99.90
23083;DHT22;11709;52.420;10.538;2022-12-05T00:36:58;2.20;99.90
23083;DHT22;11709;52.420;10.538;2022-12-05T00:41:05;2.20;99.90
23083;DHT22;11709;52.420;10.538;2022-12-05T00:45:08;2.20;99.90
23083;DHT22;11709;52.420;10.538;2022-12-05T00:49:11;2.10;99.90
23083;DHT22;11709;52.420;10.538;2022-12-05T00:53:13;2.20;99.90
23083;DHT22;11709;52.420;10.538;2022-12-05T00:57:16;2.20;99.90
23083;DHT22;11709;52.420;10.538;2022-12-05T01:05:27;2.20;99.90
23083;DHT22;11709;52.420;10.538;2022-12-05T01:09:30;2.20;99.90
23083;DHT22;11709;52.420;10.538;2022-12-05T01:13:33;2.20;99.90
23083;DHT22;11709;52.420;10.538;2022-12-05T01:17:35;2.20;99.90
23083;DHT22;11709;52.420;10.538;2022-12-05T01:21:38;2.30;99.90
23083;DHT22;11709;52.420;10.538;2022-12-05T01:25:42;2.20;99.90
23083;DHT22;11709;52.420;10.538;2022-12-05T01:29:45;2.30;99.90
23083;DHT22;11709;52.420;10.538;2022-12-05T01:33:48;2.30;99.90
23083;DHT22;11709;52.420;10.538;2022-12-05T01:37:51;2.30;99.90
23083;DHT22;11709;52.420;10.538;2022-12-05T01:41:53;2.30;99.90
23083;DHT22;11709;52.420;10.538;2022-12-05T01:45:56;2.30;99.90
23083;DHT22;11709;52.420;10.538;2022-12-05T01:49:59;2.30;99.90
23083;DHT22;11709;52.420;10.538;2022-12-05T01:54:02;1.60;99.90
23083;DHT22;11709;52.420;10.538;2022-12-05T01:58:07;2.30;99.90
23083;DHT22;11709;52.420;10.538;2022-12-05T02:02:11;2.30;99.90
23083;DHT22;11709;52.420;10.538;2022-12-05T02:06:14;2.30;99.90
23083;DHT22;11709;52.420;10.538;2022-12-05T02:10:17;2.30;99.90
23083;DHT22;11709;52.420;10.538;2022-12-05T02:15:02;2.30;99.90
23083;DHT22;11709;52.420;10.538;2022-12-05T02:32:17;2.40;99.90
23083;DHT22;11709;52.420;10.538;2022-12-05T02:37:13;2.30;99.90
23083;DHT22;11709;52.420;10.538;2022-12-05T02:41:00;2.40;99.90
23083;DHT22;11709;52.420;10.538;2022-12-05T02:45:04;2.40;99.90
23083;DHT22;11709;52.420;10.538;2022-12-05T02:49:13;2.40;99.90
23083;DHT22;11709;52.420;10.538;2022-12-05T02:53:16;2.40;99.90
23083;DHT22;11709;52.420;10.538;2022-12-05T02:57:21;2.40;99.90
23083;DHT22;11709;52.420;10.538;2022-12-05T03:01:27;2.40;99.90
23083;DHT22;11709;52.420;10.538;2022-12-05T03:05:54;2.40;99.90
23083;DHT22;11709;52.420;10.538;2022-12-05T03:09:57;2.40;99.90
23083;DHT22;11709;52.420;10.538;2022-12-05T03:18:07;2.40;99.90
23083;DHT22;11709;52.420;10.538;2022-12-05T03:22:14;2.40;99.90
23083;DHT22;11709;52.420;10.538;2022-12-05T03:30:37;2.30;99.90
23083;DHT22;11709;52.420;10.538;2022-12-05T03:34:57;2.30;99.90
23083;DHT22;11709;52.420;10.538;2022-12-05T03:39:24;2.30;99.90
23083;DHT22;11709;52.420;10.538;2022-12-05T03:43:08;2.30;99.90
23083;DHT22;11709;52.420;10.538;2022-12-05T03:47:34;2.30;99.90
23083;DHT22;11709;52.420;10.538;2022-12-05T03:51:50;2.30;99.90
23083;DHT22;11709;52.420;10.538;2022-12-05T03:55:50;2.30;99.90
23083;DHT22;11709;52.420;10.538;2022-12-05T04:00:07;2.40;99.90
23083;DHT22;11709;52.420;10.538;2022-12-05T04:04:15;3.00;99.90
23083;DHT22;11709;52.420;10.538;2022-12-05T04:08:28;2.40;99.90
23083;DHT22;11709;52.420;10.538;2022-12-05T04:12:33;2.40;99.90
23083;DHT22;11709;52.420;10.538;2022-12-05T04:17:06;2.40;99.90
23083;DHT22;11709;52.420;10.538;2022-12-05T04:21:06;2.40;99.90
23083;DHT22;11709;52.420;10.538;2022-12-05T04:25:30;2.40;99.90
23083;DHT22;11709;52.420;10.538;2022-12-05T04:29:41;2.40;99.90
23083;DHT22;11709;52.420;10.538;2022-12-05T04:33:56;2.50;99.90
23083;DHT22;11709;52.420;10.538;2022-12-05T04:38:08;2.50;99.90
23083;DHT22;11709;52.420;10.538;2022-12-05T04:42:19;2.50;99.90
23083;DHT22;11709;52.420;10.538;2022-12-05T04:46:19;2.50;99.90
23083;DHT22;11709;52.420;10.538;2022-12-05T04:50:23;2.50;99.90
23083;DHT22;11709;52.420;10.538;2022-12-05T04:54:42;2.50;99.90
23083;DHT22;11709;52.420;10.538;2022-12-05T04:58:45;2.40;99.90
23083;DHT22;11709;52.420;10.538;2022-12-05T05:02:50;2.40;99.90
23083;DHT22;11709;52.420;10.538;2022-12-05T05:06:53;2.30;99.90
23083;DHT22;11709;52.420;10.538;2022-12-05T05:11:15;2.30;99.90
23083;DHT22;11709;52.420;10.538;2022-12-05T05:15:17;2.30;99.90
23083;DHT22;11709;52.420;10.538;2022-12-05T05:19:20;2.30;99.90
23083;DHT22;11709;52.420;10.538;2022-12-05T05:23:22;2.30;99.90
23083;DHT22;11709;52.420;10.538;2022-12-05T05:27:25;2.20;99.90
23083;DHT22;11709;52.420;10.538;2022-12-05T05:31:27;2.20;99.90
23083;DHT22;11709;52.420;10.538;2022-12-05T05:35:30;2.20;99.90
23083;DHT22;11709;52.420;10.538;2022-12-05T05:39:32;2.20;99.90
23083;DHT22;11709;52.420;10.538;2022-12-05T05:43:35;2.20;99.90
23083;DHT22;11709;52.420;10.538;2022-12-05T05:47:37;2.20;99.90
23083;DHT22;11709;52.420;10.538;2022-12-05T05:51:40;2.10;99.90
23083;DHT22;11709;52.420;10.538;2022-12-05T05:55:42;2.10;99.90
23083;DHT22;11709;52.420;10.538;2022-12-05T05:59:45;2.10;99.90
23083;DHT22;11709;52.420;10.538;2022-12-05T06:03:48;2.10;99.90
23083;DHT22;11709;52.420;10.538;2022-12-05T06:07:53;2.00;99.90
23083;DHT22;11709;52.420;10.538;2022-12-05T06:11:56;2.00;99.90
23083;DHT22;11709;52.420;10.538;2022-12-05T06:15:58;1.90;99.90
23083;DHT22;11709;52.420;10.538;2022-12-05T06:20:01;1.80;99.90
23083;DHT22;11709;52.420;10.538;2022-12-05T06:24:04;2.00;99.90
23083;DHT22;11709;52.420;10.538;2022-12-05T06:28:06;1.80;99.90
23083;DHT22;11709;52.420;10.538;2022-12-05T06:32:09;1.80;99.90
23083;DHT22;11709;52.420;10.538;2022-12-05T06:36:14;1.80;99.90
23083;DHT22;11709;52.420;10.538;2022-12-05T06:40:17;1.70;99.90
23083;DHT22;11709;52.420;10.538;2022-12-05T06:44:19;1.40;99.90
23083;DHT22;11709;52.420;10.538;2022-12-05T06:48:22;1.60;99.90
23083;DHT22;11709;52.420;10.538;2022-12-05T06:52:25;1.60;99.90
23083;DHT22;11709;52.420;10.538;2022-12-05T06:56:28;1.60;99.90
23083;DHT22;11709;52.420;10.538;2022-12-05T07:00:32;1.60;99.90
23083;DHT22;11709;52.420;10.538;2022-12-05T07:04:52;1.60;99.90
23083;DHT22;11709;52.420;10.538;2022-12-05T07:08:54;1.60;99.90
23083;DHT22;11709;52.420;10.538;2022-12-05T07:12:57;1.60;99.90
23083;DHT22;11709;52.420;10.538;2022-12-05T07:16:59;1.60;99.90
23083;DHT22;11709;52.420;10.538;2022-12-05T07:21:05;1.60;99.90
23083;DHT22;11709;52.420;10.538;2022-12-05T07:25:08;1.50;99.90
23083;DHT22;11709;52.420;10.538;2022-12-05T07:29:11;1.60;99.90
23083;DHT22;11709;52.420;10.538;2022-12-05T07:33:13;1.50;99.90
23083;DHT22;11709;52.420;10.538;2022-12-05T07:37:16;1.60;99.90
23083;DHT22;11709;52.420;10.538;2022-12-05T07:41:26;1.60;99.90
23083;DHT22;11709;52.420;10.538;2022-12-05T07:45:29;1.60;99.90
23083;DHT22;11709;52.420;10.538;2022-12-05T07:49:31;1.50;99.90
23083;DHT22;11709;52.420;10.538;2022-12-05T07:53:34;1.50;99.90
23083;DHT22;11709;52.420;10.538;2022-12-05T07:57:37;1.50;99.90
23083;DHT22;11709;52.420;10.538;2022-12-05T08:01:39;1.60;99.90
23083;DHT22;11709;52.420;10.538;2022-12-05T08:05:42;1.60;99.90
23083;DHT22;11709;52.420;10.538;2022-12-05T08:09:44;1.60;99.90
23083;DHT22;11709;52.420;10.538;2022-12-05T08:13:47;1.60;99.90
23083;DHT22;11709;52.420;10.538;2022-12-05T08:17:50;1.60;99.90
23083;DHT22;11709;52.420;10.538;2022-12-05T08:21:54;1.60;99.90
23083;DHT22;11709;52.420;10.538;2022-12-05T08:26:01;1.60;99.90
23083;DHT22;11709;52.420;10.538;2022-12-05T08:30:05;1.60;99.90
23083;DHT22;11709;52.420;10.538;2022-12-05T08:34:09;1.70;99.90
23083;DHT22;11709;52.420;10.538;2022-12-05T08:38:11;1.60;99.90
23083;DHT22;11709;52.420;10.538;2022-12-05T08:42:14;1.60;99.90
23083;DHT22;11709;52.420;10.538;2022-12-05T08:46:16;1.60;99.90
23083;DHT22;11709;52.420;10.538;2022-12-05T08:50:19;1.70;99.90
23083;DHT22;11709;52.420;10.538;2022-12-05T08:54:21;1.70;99.90
23083;DHT22;11709;52.420;10.538;2022-12-05T08:58:24;1.70;99.90
23083;DHT22;11709;52.420;10.538;2022-12-05T09:02:26;1.60;99.90
23083;DHT22;11709;52.420;10.538;2022-12-05T09:06:29;1.60;99.90
23083;DHT22;11709;52.420;10.538;2022-12-05T09:10:32;1.60;99.90
23083;DHT22;11709;52.420;10.538;2022-12-05T09:14:35;1.70;99.90
23083;DHT22;11709;52.420;10.538;2022-12-05T09:18:38;1.60;99.90
23083;DHT22;11709;52.420;10.538;2022-12-05T09:22:40;1.70;99.90
23083;DHT22;11709;52.420;10.538;2022-12-05T09:26:43;1.70;99.90
23083;DHT22;11709;52.420;10.538;2022-12-05T09:30:54;1.80;99.90
23083;DHT22;11709;52.420;10.538;2022-12-05T09:34:51;1.80;99.90
23083;DHT22;11709;52.420;10.538;2022-12-05T09:38:58;1.90;99.90
23083;DHT22;11709;52.420;10.538;2022-12-05T09:43:48;1.80;99.90
23083;DHT22;11709;52.420;10.538;2022-12-05T09:47:12;1.80;99.90
23083;DHT22;11709;52.420;10.538;2022-12-05T09:51:13;1.90;99.90
23083;DHT22;11709;52.420;10.538;2022-12-05T09:55:18;1.90;99.90
23083;DHT22;11709;52.420;10.538;2022-12-05T09:59:21;1.90;99.90
23083;DHT22;11709;52.420;10.538;2022-12-05T10:03:42;1.90;99.90
23083;DHT22;11709;52.420;10.538;2022-12-05T10:07:54;1.90;99.90
23083;DHT22;11709;52.420;10.538;2022-12-05T10:16:36;1.90;99.90
23083;DHT22;11709;52.420;10.538;2022-12-05T10:24:49;2.00;99.90
23083;DHT22;11709;52.420;10.538;2022-12-05T10:28:58;2.10;99.90
23083;DHT22;11709;52.420;10.538;2022-12-05T10:33:12;2.20;99.90
23083;DHT22;11709;52.420;10.538;2022-12-05T10:37:19;2.20;99.90
23083;DHT22;11709;52.420;10.538;2022-12-05T10:41:22;2.30;99.90
23083;DHT22;11709;52.420;10.538;2022-12-05T10:45:25;2.30;99.90
23083;DHT22;11709;52.420;10.538;2022-12-05T10:49:28;2.30;99.90
23083;DHT22;11709;52.420;10.538;2022-12-05T10:53:46;2.30;99.90
23083;DHT22;11709;52.420;10.538;2022-12-05T10:58:07;2.30;99.90
23083;DHT22;11709;52.420;10.538;2022-12-05T11:01:57;2.30;99.90
23083;DHT22;11709;52.420;10.538;2022-12-05T11:06:02;2.20;99.90
23083;DHT22;11709;52.420;10.538;2022-12-05T11:10:20;2.30;99.90
23083;DHT22;11709;52.420;10.538;2022-12-05T11:14:25;2.30;99.90
23083;DHT22;11709;52.420;10.538;2022-12-05T11:18:32;2.40;99.90
23083;DHT22;11709;52.420;10.538;2022-12-05T11:22:35;2.40;99.90
23083;DHT22;11709;52.420;10.538;2022-12-05T11:26:38;2.30;99.90
23083;DHT22;11709;52.420;10.538;2022-12-05T11:39:11;2.30;99.90
23083;DHT22;11709;52.420;10.538;2022-12-05T11:43:41;2.30;99.90
23083;DHT22;11709;52.420;10.538;2022-12-05T11:48:01;2.40;99.90
23083;DHT22;11709;52.420;10.538;2022-12-05T11:56:37;2.30;99.90
23083;DHT22;11709;52.420;10.538;2022-12-05T12:13:46;2.50;99.90
23083;DHT22;11709;52.420;10.538;2022-12-05T12:18:05;2.50;99.90
23083;DHT22;11709;52.420;10.538;2022-12-05T12:22:28;2.70;99.90
23083;DHT22;11709;52.420;10.538;2022-12-05T12:35:30;2.60;99.90
23083;DHT22;11709;52.420;10.538;2022-12-05T12:52:56;2.50;99.90
23083;DHT22;11709;52.420;10.538;2022-12-05T12:56:59;2.60;99.90
23083;DHT22;11709;52.420;10.538;2022-12-05T13:09:54;2.50;99.90
23083;DHT22;11709;52.420;10.538;2022-12-05T13:13:58;2.50;99.90
23083;DHT22;11709;52.420;10.538;2022-12-05T13:18:02;2.40;99.90
23083;DHT22;11709;52.420;10.538;2022-12-05T13:22:07;2.50;99.90
23083;DHT22;11709;52.420;10.538;2022-12-05T13:26:10;2.50;99.90
23083;DHT22;11709;52.420;10.538;2022-12-05T13:30:17;2.40;99.90
23083;DHT22;11709;52.420;10.538;2022-12-05T13:38:34;2.30;99.90
23083;DHT22;11709;52.420;10.538;2022-12-05T13:43:00;2.40;99.90
23083;DHT22;11709;52.420;10.538;2022-12-05T13:47:03;2.40;99.90
23083;DHT22;11709;52.420;10.538;2022-12-05T13:51:13;2.30;99.90
23083;DHT22;11709;52.420;10.538;2022-12-05T13:55:37;2.30;99.90
23083;DHT22;11709;52.420;10.538;2022-12-05T14:00:02;2.30;99.90
23083;DHT22;11709;52.420;10.538;2022-12-05T14:04:20;2.60;99.90
23083;DHT22;11709;52.420;10.538;2022-12-05T14:16:54;2.30;99.90
23083;DHT22;11709;52.420;10.538;2022-12-05T14:21:16;2.30;99.90
23083;DHT22;11709;52.420;10.538;2022-12-05T14:25:21;2.30;99.90
23083;DHT22;11709;52.420;10.538;2022-12-05T14:33:34;2.30;99.90
23083;DHT22;11709;52.420;10.538;2022-12-05T14:37:39;2.30;99.90
23083;DHT22;11709;52.420;10.538;2022-12-05T14:41:42;2.30;99.90
23083;DHT22;11709;52.420;10.538;2022-12-05T14:45:59;2.30;99.90
23083;DHT22;11709;52.420;10.538;2022-12-05T14:54:30;2.30;99.90
23083;DHT22;11709;52.420;10.538;2022-12-05T14:59:03;2.30;99.90
23083;DHT22;11709;52.420;10.538;2022-12-05T15:03:10;2.30;99.90
23083;DHT22;11709;52.420;10.538;2022-12-05T15:07:18;2.30;99.90
23083;DHT22;11709;52.420;10.538;2022-12-05T15:11:23;2.30;99.90
23083;DHT22;11709;52.420;10.538;2022-12-05T15:19:59;2.20;99.90
23083;DHT22;11709;52.420;10.538;2022-12-05T15:24:10;2.30;99.90
23083;DHT22;11709;52.420;10.538;2022-12-05T15:28:17;2.30;99.90
23083;DHT22;11709;52.420;10.538;2022-12-05T15:32:23;2.20;99.90
23083;DHT22;11709;52.420;10.538;2022-12-05T15:36:28;2.30;99.90
23083;DHT22;11709;52.420;10.538;2022-12-05T15:40:35;2.20;99.90
23083;DHT22;11709;52.420;10.538;2022-12-05T15:44:41;2.30;99.90
23083;DHT22;11709;52.420;10.538;2022-12-05T15:48:43;2.20;99.90
23083;DHT22;11709;52.420;10.538;2022-12-05T15:52:58;2.20;99.90
23083;DHT22;11709;52.420;10.538;2022-12-05T15:57:14;2.20;99.90
23083;DHT22;11709;52.420;10.538;2022-12-05T16:01:18;2.20;99.90
23083;DHT22;11709;52.420;10.538;2022-12-05T16:05:28;2.20;99.90
23083;DHT22;11709;52.420;10.538;2022-12-05T16:09:32;2.10;99.90
23083;DHT22;11709;52.420;10.538;2022-12-05T16:13:35;2.10;99.90
23083;DHT22;11709;52.420;10.538;2022-12-05T16:17:44;2.10;99.90
23083;DHT22;11709;52.420;10.538;2022-12-05T16:26:19;2.10;99.90
23083;DHT22;11709;52.420;10.538;2022-12-05T16:34:19;2.10;99.90
23083;DHT22;11709;52.420;10.538;2022-12-05T16:38:26;2.10;99.90
23083;DHT22;11709;52.420;10.538;2022-12-05T16:42:32;2.10;99.90
23083;DHT22;11709;52.420;10.538;2022-12-05T16:50:42;2.10;99.90
23083;DHT22;11709;52.420;10.538;2022-12-05T16:54:45;2.10;99.90
23083;DHT22;11709;52.420;10.538;2022-12-05T16:58:50;2.10;99.90
23083;DHT22;11709;52.420;10.538;2022-12-05T17:02:53;2.10;99.90
23083;DHT22;11709;52.420;10.538;2022-12-05T17:06:55;2.10;99.90
23083;DHT22;11709;52.420;10.538;2022-12-05T17:10:58;2.10;99.90
23083;DHT22;11709;52.420;10.538;2022-12-05T17:15:02;2.10;99.90
23083;DHT22;11709;52.420;10.538;2022-12-05T17:19:04;2.10;99.90
23083;DHT22;11709;52.420;10.538;2022-12-05T17:23:10;2.10;99.90
23083;DHT22;11709;52.420;10.538;2022-12-05T17:27:12;2.10;99.90
23083;DHT22;11709;52.420;10.538;2022-12-05T17:31:20;2.10;99.90
23083;DHT22;11709;52.420;10.538;2022-12-05T17:35:22;2.10;99.90
23083;DHT22;11709;52.420;10.538;2022-12-05T17:39:25;2.10;99.90
23083;DHT22;11709;52.420;10.538;2022-12-05T17:43:28;2.10;99.90
23083;DHT22;11709;52.420;10.538;2022-12-05T17:47:30;2.10;99.90
23083;DHT22;11709;52.420;10.538;2022-12-05T17:51:33;2.10;99.90
23083;DHT22;11709;52.420;10.538;2022-12-05T17:55:35;2.10;99.90
23083;DHT22;11709;52.420;10.538;2022-12-05T17:59:38;2.20;99.90
23083;DHT22;11709;52.420;10.538;2022-12-05T18:03:41;2.10;99.90
23083;DHT22;11709;52.420;10.538;2022-12-05T18:07:44;2.10;99.90
23083;DHT22;11709;52.420;10.538;2022-12-05T18:11:47;2.10;99.90
23083;DHT22;11709;52.420;10.538;2022-12-05T18:15:54;2.20;99.90
23083;DHT22;11709;52.420;10.538;2022-12-05T18:19:55;2.10;99.90
23083;DHT22;11709;52.420;10.538;2022-12-05T18:23:58;2.20;99.90
23083;DHT22;11709;52.420;10.538;2022-12-05T18:28:01;2.20;99.90
23083;DHT22;11709;52.420;10.538;2022-12-05T18:32:03;2.20;99.90
23083;DHT22;11709;52.420;10.538;2022-12-05T18:36:08;2.20;99.90
23083;DHT22;11709;52.420;10.538;2022-12-05T18:40:11;2.90;99.90
23083;DHT22;11709;52.420;10.538;2022-12-05T18:44:14;2.10;99.90
23083;DHT22;11709;52.420;10.538;2022-12-05T18:48:17;2.20;99.90
23083;DHT22;11709;52.420;10.538;2022-12-05T18:52:19;2.20;99.90
23083;DHT22;11709;52.420;10.538;2022-12-05T18:56:24;2.20;99.90
23083;DHT22;11709;52.420;10.538;2022-12-05T19:00:27;1.70;99.90
23083;DHT22;11709;52.420;10.538;2022-12-05T19:04:30;2.20;99.90
23083;DHT22;11709;52.420;10.538;2022-12-05T19:08:33;2.10;99.90
23083;DHT22;11709;52.420;10.538;2022-12-05T19:12:35;2.10;99.90
23083;DHT22;11709;52.420;10.538;2022-12-05T19:16:38;2.20;99.90
23083;DHT22;11709;52.420;10.538;2022-12-05T19:20:47;2.20;99.90
23083;DHT22;11709;52.420;10.538;2022-12-05T19:24:46;2.20;99.90
23083;DHT22;11709;52.420;10.538;2022-12-05T19:28:49;2.20;99.90
23083;DHT22;11709;52.420;10.538;2022-12-05T19:32:51;2.20;99.90
23083;DHT22;11709;52.420;10.538;2022-12-05T19:36:54;2.20;99.90
23083;DHT22;11709;52.420;10.538;2022-12-05T19:40:56;2.30;99.90
23083;DHT22;11709;52.420;10.538;2022-12-05T19:44:59;2.20;99.90
23083;DHT22;11709;52.420;10.538;2022-12-05T19:49:08;2.30;99.90
23083;DHT22;11709;52.420;10.538;2022-12-05T19:53:10;2.30;99.90
23083;DHT22;11709;52.420;10.538;2022-12-05T19:57:12;2.20;99.90
23083;DHT22;11709;52.420;10.538;2022-12-05T20:01:20;2.30;99.90
23083;DHT22;11709;52.420;10.538;2022-12-05T20:05:23;2.30;99.90
23083;DHT22;11709;52.420;10.538;2022-12-05T20:09:25;2.30;99.90
23083;DHT22;11709;52.420;10.538;2022-12-05T20:13:28;2.30;99.90
23083;DHT22;11709;52.420;10.538;2022-12-05T20:17:30;2.30;99.90
23083;DHT22;11709;52.420;10.538;2022-12-05T20:21:34;2.30;99.90
23083;DHT22;11709;52.420;10.538;2022-12-05T20:25:37;2.70;99.90
23083;DHT22;11709;52.420;10.538;2022-12-05T20:29:39;2.20;99.90
23083;DHT22;11709;52.420;10.538;2022-12-05T20:33:42;2.20;99.90
23083;DHT22;11709;52.420;10.538;2022-12-05T20:37:45;2.30;99.90
23083;DHT22;11709;52.420;10.538;2022-12-05T20:41:48;2.20;99.90
23083;DHT22;11709;52.420;10.538;2022-12-05T20:45:50;2.20;99.90
23083;DHT22;11709;52.420;10.538;2022-12-05T20:49:53;2.20;99.90
23083;DHT22;11709;52.420;10.538;2022-12-05T20:53:57;2.20;99.90
23083;DHT22;11709;52.420;10.538;2022-12-05T20:58:00;2.20;99.90
23083;DHT22;11709;52.420;10.538;2022-12-05T21:02:03;2.20;99.90
23083;DHT22;11709;52.420;10.538;2022-12-05T21:06:12;2.30;99.90
23083;DHT22;11709;52.420;10.538;2022-12-05T21:10:10;2.10;99.90
23083;DHT22;11709;52.420;10.538;2022-12-05T21:14:13;2.20;99.90
23083;DHT22;11709;52.420;10.538;2022-12-05T21:18:15;2.20;99.90
23083;DHT22;11709;52.420;10.538;2022-12-05T21:22:18;2.20;99.90
23083;DHT22;11709;52.420;10.538;2022-12-05T21:26:21;2.20;99.90
23083;DHT22;11709;52.420;10.538;2022-12-05T21:30:24;2.30;99.90
23083;DHT22;11709;52.420;10.538;2022-12-05T21:34:27;2.30;99.90
23083;DHT22;11709;52.420;10.538;2022-12-05T21:38:29;2.30;99.90
23083;DHT22;11709;52.420;10.538;2022-12-05T21:42:32;2.30;99.90
23083;DHT22;11709;52.420;10.538;2022-12-05T21:46:35;2.30;99.90
23083;DHT22;11709;52.420;10.538;2022-12-05T21:50:37;2.30;99.90
23083;DHT22;11709;52.420;10.538;2022-12-05T21:54:40;2.30;99.90
23083;DHT22;11709;52.420;10.538;2022-12-05T21:58:44;2.40;99.90
23083;DHT22;11709;52.420;10.538;2022-12-05T22:02:46;2.40;99.90
23083;DHT22;11709;52.420;10.538;2022-12-05T22:06:50;2.40;99.90
23083;DHT22;11709;52.420;10.538;2022-12-05T22:10:52;2.30;99.90
23083;DHT22;11709;52.420;10.538;2022-12-05T22:14:55;2.40;99.90
23083;DHT22;11709;52.420;10.538;2022-12-05T22:18:58;2.40;99.90
23083;DHT22;11709;52.420;10.538;2022-12-05T22:23:00;2.40;99.90
23083;DHT22;11709;52.420;10.538;2022-12-05T22:27:03;2.40;99.90
23083;DHT22;11709;52.420;10.538;2022-12-05T22:31:07;2.40;99.90
23083;DHT22;11709;52.420;10.538;2022-12-05T22:35:10;2.40;99.90
23083;DHT22;11709;52.420;10.538;2022-12-05T22:39:13;2.40;99.90
23083;DHT22;11709;52.420;10.538;2022-12-05T22:43:15;2.40;99.90
23083;DHT22;11709;52.420;10.538;2022-12-05T22:47:18;2.40;99.90
23083;DHT22;11709;52.420;10.538;2022-12-05T22:51:21;2.50;99.90
23083;DHT22;11709;52.420;10.538;2022-12-05T22:55:23;2.40;99.90
23083;DHT22;11709;52.420;10.538;2022-12-05T22:59:26;2.40;99.90
23083;DHT22;11709;52.420;10.538;2022-12-05T23:03:28;2.40;99.90
23083;DHT22;11709;52.420;10.538;2022-12-05T23:07:31;2.40;99.90
23083;DHT22;11709;52.420;10.538;2022-12-05T23:11:33;2.40;99.90
23083;DHT22;11709;52.420;10.538;2022-12-05T23:15:37;2.50;99.90
23083;DHT22;11709;52.420;10.538;2022-12-05T23:19:39;2.40;99.90
23083;DHT22;11709;52.420;10.538;2022-12-05T23:23:42;2.40;99.90
23083;DHT22;11709;52.420;10.538;2022-12-05T23:27:44;2.50;99.90
23083;DHT22;11709;52.420;10.538;2022-12-05T23:31:47;2.40;99.90
23083;DHT22;11709;52.420;10.538;2022-12-05T23:35:56;2.40;99.90
23083;DHT22;11709;52.420;10.538;2022-12-05T23:39:55;2.40;99.90
23083;DHT22;11709;52.420;10.538;2022-12-05T23:43:58;2.50;99.90
23083;DHT22;11709;52.420;10.538;2022-12-05T23:48:00;2.40;99.90
23083;DHT22;11709;52.420;10.538;2022-12-05T23:52:02;2.40;99.90
23083;DHT22;11709;52.420;10.538;2022-12-05T23:56:10;2.40;99.90
